CMP424 SBFL-MPTO
Flight info
| Callsign | CMP424 |
|---|---|
| Flight time | 6h 39m |
| Altitude | 34000 |
| Route | PUNO4A ENSUG UZ63 LON AKRIL UZ52 DIKAL UL655 ASAPA UQ114 DAGUR UP527 MUBMI ISOKO ISOKO2 |
| Aircraft | B737/M-SDE3FGHIRWY/S |
Departure
| Time | 2026-04-23 17:43 |
|---|---|
| Airport | Hercílio Luz International Airport (SBFL) |
Arrival
| Time | 2026-04-24 00:23 |
|---|---|
| Airport | Tocumen International Airport (MPTO) |
| Time | Latitude | Longitude | Altitude | Speed | Heading |
|---|---|---|---|---|---|
| 2026-04-23 17:19 | -27.67264 | -48.54575 | 23 ft | 0 kts | 209° |
| 2026-04-23 17:35 | -27.67224 | -48.54569 | 23 ft | 4 kts | 140° |
| 2026-04-23 17:35 | -27.67213 | -48.54581 | 23 ft | 1 kts | 123° |
| 2026-04-23 17:36 | -27.67212 | -48.54583 | 23 ft | 0 kts | 123° |
| 2026-04-23 17:38 | -27.67216 | -48.54576 | 23 ft | 3 kts | 122° |
| 2026-04-23 17:39 | -27.67234 | -48.54545 | 23 ft | 7 kts | 122° |
| 2026-04-23 17:39 | -27.67265 | -48.54490 | 25 ft | 10 kts | 121° |
| 2026-04-23 17:39 | -27.67299 | -48.54413 | 27 ft | 12 kts | 99° |
| 2026-04-23 17:39 | -27.67242 | -48.54339 | 26 ft | 15 kts | 31° |
| 2026-04-23 17:40 | -27.67161 | -48.54390 | 26 ft | 16 kts | 301° |
| 2026-04-23 17:40 | -27.67098 | -48.54506 | 25 ft | 19 kts | 302° |
| 2026-04-23 17:40 | -27.67026 | -48.54637 | 25 ft | 21 kts | 302° |
| 2026-04-23 17:40 | -27.66951 | -48.54775 | 24 ft | 20 kts | 301° |
| 2026-04-23 17:41 | -27.66880 | -48.54910 | 27 ft | 20 kts | 302° |
| 2026-04-23 17:41 | -27.66710 | -48.55125 | 27 ft | 17 kts | 347° |
| 2026-04-23 17:41 | -27.66623 | -48.55129 | 26 ft | 7 kts | 23° |
| 2026-04-23 17:42 | -27.66638 | -48.55001 | 22 ft | 30 kts | 121° |
| 2026-04-23 17:42 | -27.66874 | -48.54563 | 26 ft | 99 kts | 121° |
| 2026-04-23 17:42 | -27.67340 | -48.53692 | 24 ft | 157 kts | 121° |
| 2026-04-23 17:43 | -27.67939 | -48.52574 | 503 ft | 165 kts | 121° |
| 2026-04-23 17:43 | -27.68522 | -48.51475 | 1303 ft | 164 kts | 121° |
| 2026-04-23 17:43 | -27.69118 | -48.50350 | 1930 ft | 175 kts | 121° |
| 2026-04-23 17:43 | -27.69685 | -48.48999 | 2208 ft | 207 kts | 98° |
| 2026-04-23 17:44 | -27.69347 | -48.47421 | 2731 ft | 217 kts | 51° |
| 2026-04-23 17:44 | -27.68144 | -48.46407 | 3456 ft | 218 kts | 29° |
| 2026-04-23 17:44 | -27.65438 | -48.44779 | 4845 ft | 224 kts | 28° |
| 2026-04-23 17:45 | -27.64056 | -48.43933 | 5516 ft | 230 kts | 29° |
| 2026-04-23 17:45 | -27.61217 | -48.42152 | 5946 ft | 232 kts | 31° |
| 2026-04-23 17:45 | -27.59822 | -48.41258 | 6013 ft | 231 kts | 31° |
| 2026-04-23 17:46 | -27.56974 | -48.39427 | 5992 ft | 238 kts | 31° |
| 2026-04-23 17:46 | -27.55546 | -48.38506 | 5994 ft | 235 kts | 31° |
| 2026-04-23 17:46 | -27.54047 | -48.37901 | 5971 ft | 234 kts | 1° |
| 2026-04-23 17:47 | -27.52412 | -48.38104 | 6084 ft | 244 kts | 352° |
| 2026-04-23 17:47 | -27.50642 | -48.38426 | 6337 ft | 271 kts | 352° |
| 2026-04-23 17:47 | -27.46768 | -48.39146 | 7789 ft | 287 kts | 352° |
| 2026-04-23 17:48 | -27.44788 | -48.39511 | 8602 ft | 290 kts | 351° |
| 2026-04-23 17:48 | -27.42769 | -48.39883 | 9314 ft | 297 kts | 351° |
| 2026-04-23 17:48 | -27.40725 | -48.40255 | 10131 ft | 298 kts | 351° |
| 2026-04-23 17:48 | -27.38644 | -48.40634 | 10701 ft | 311 kts | 351° |
| 2026-04-23 17:49 | -27.36425 | -48.41037 | 10869 ft | 335 kts | 351° |
| 2026-04-23 17:49 | -27.34050 | -48.41467 | 11146 ft | 353 kts | 351° |
| 2026-04-23 17:49 | -27.31623 | -48.41906 | 11752 ft | 360 kts | 351° |
| 2026-04-23 17:49 | -27.29143 | -48.42355 | 12510 ft | 361 kts | 350° |
| 2026-04-23 17:50 | -27.26659 | -48.42804 | 13271 ft | 362 kts | 350° |
| 2026-04-23 17:50 | -27.21620 | -48.43787 | 14533 ft | 371 kts | 346° |
| 2026-04-23 17:50 | -27.19108 | -48.44472 | 15182 ft | 374 kts | 344° |
| 2026-04-23 17:51 | -27.16576 | -48.45222 | 15817 ft | 377 kts | 343° |
| 2026-04-23 17:51 | -27.14033 | -48.45990 | 16437 ft | 380 kts | 343° |
| 2026-04-23 17:51 | -27.08861 | -48.47533 | 17629 ft | 387 kts | 343° |
| 2026-04-23 17:52 | -27.06279 | -48.48290 | 18206 ft | 390 kts | 343° |
| 2026-04-23 17:52 | -27.00968 | -48.49829 | 19253 ft | 397 kts | 343° |
| 2026-04-23 17:52 | -26.98276 | -48.50604 | 19741 ft | 401 kts | 343° |
| 2026-04-23 17:53 | -26.92814 | -48.52172 | 20710 ft | 408 kts | 343° |
| 2026-04-23 17:53 | -26.90073 | -48.52958 | 21189 ft | 411 kts | 343° |
| 2026-04-23 17:53 | -26.87289 | -48.53756 | 21647 ft | 415 kts | 343° |
| 2026-04-23 17:54 | -26.84482 | -48.54560 | 22089 ft | 418 kts | 342° |
| 2026-04-23 17:54 | -26.81654 | -48.55370 | 22525 ft | 421 kts | 342° |
| 2026-04-23 17:54 | -26.75932 | -48.57007 | 23347 ft | 427 kts | 342° |
| 2026-04-23 17:55 | -26.70125 | -48.58667 | 24110 ft | 433 kts | 342° |
| 2026-04-23 17:55 | -26.68190 | -48.59220 | 24353 ft | 434 kts | 342° |
| 2026-04-23 17:55 | -26.64257 | -48.60344 | 24870 ft | 437 kts | 342° |
| 2026-04-23 17:56 | -26.62309 | -48.60900 | 25116 ft | 438 kts | 341° |
| 2026-04-23 17:56 | -26.55419 | -48.62863 | 25970 ft | 441 kts | 341° |
| 2026-04-23 17:56 | -26.52440 | -48.63711 | 26317 ft | 443 kts | 341° |
| 2026-04-23 17:57 | -26.50417 | -48.64287 | 26544 ft | 444 kts | 341° |
| 2026-04-23 17:57 | -26.47416 | -48.65142 | 26888 ft | 445 kts | 341° |
| 2026-04-23 17:57 | -26.41440 | -48.66842 | 27503 ft | 448 kts | 340° |
| 2026-04-23 17:58 | -26.38412 | -48.67703 | 27800 ft | 449 kts | 340° |
| 2026-04-23 17:58 | -26.35377 | -48.68564 | 28080 ft | 451 kts | 340° |
| 2026-04-23 17:58 | -26.32320 | -48.69433 | 28371 ft | 453 kts | 340° |
| 2026-04-23 17:58 | -26.29263 | -48.70299 | 28700 ft | 453 kts | 340° |
| 2026-04-23 17:59 | -26.26213 | -48.71162 | 29114 ft | 451 kts | 340° |
| 2026-04-23 17:59 | -26.23175 | -48.72020 | 29569 ft | 448 kts | 339° |
| 2026-04-23 17:59 | -26.20160 | -48.72873 | 30071 ft | 445 kts | 339° |
| 2026-04-23 17:59 | -26.17169 | -48.73721 | 30502 ft | 444 kts | 339° |
| 2026-04-23 18:00 | -26.14176 | -48.74570 | 30873 ft | 444 kts | 339° |
| 2026-04-23 18:00 | -26.11235 | -48.75550 | 31194 ft | 437 kts | 329° |
| 2026-04-23 18:00 | -26.08656 | -48.77228 | 31562 ft | 426 kts | 320° |
| 2026-04-23 18:00 | -26.06197 | -48.79061 | 32008 ft | 423 kts | 320° |
| 2026-04-23 18:01 | -26.03776 | -48.80859 | 32326 ft | 424 kts | 320° |
| 2026-04-23 18:01 | -26.01304 | -48.82663 | 32618 ft | 425 kts | 320° |
| 2026-04-23 18:01 | -25.98820 | -48.84446 | 32993 ft | 424 kts | 321° |
| 2026-04-23 18:01 | -25.96335 | -48.86218 | 33345 ft | 425 kts | 321° |
| 2026-04-23 18:02 | -25.93840 | -48.87997 | 33639 ft | 427 kts | 321° |
| 2026-04-23 18:02 | -25.91335 | -48.89786 | 33971 ft | 426 kts | 321° |
| 2026-04-23 18:02 | -25.88854 | -48.91558 | 34134 ft | 423 kts | 321° |
| 2026-04-23 18:03 | -25.83898 | -48.95096 | 34139 ft | 423 kts | 321° |
| 2026-04-23 18:03 | -25.78946 | -48.98632 | 34154 ft | 423 kts | 321° |
| 2026-04-23 18:04 | -25.73993 | -49.02157 | 34176 ft | 423 kts | 321° |
| 2026-04-23 18:04 | -25.69065 | -49.05635 | 34191 ft | 423 kts | 321° |
| 2026-04-23 18:05 | -25.64092 | -49.09136 | 34200 ft | 423 kts | 321° |
| 2026-04-23 18:05 | -25.59126 | -49.12630 | 34206 ft | 423 kts | 321° |
| 2026-04-23 18:06 | -25.54159 | -49.16124 | 34210 ft | 423 kts | 321° |
| 2026-04-23 18:06 | -25.49506 | -49.20031 | 34214 ft | 418 kts | 314° |
| 2026-04-23 18:07 | -25.45070 | -49.24182 | 34220 ft | 418 kts | 315° |
| 2026-04-23 18:07 | -25.40567 | -49.28288 | 34218 ft | 419 kts | 315° |
| 2026-04-23 18:08 | -25.36070 | -49.32343 | 34209 ft | 420 kts | 315° |
| 2026-04-23 18:08 | -25.31540 | -49.36425 | 34216 ft | 420 kts | 315° |
| 2026-04-23 18:09 | -25.27002 | -49.40515 | 34208 ft | 421 kts | 315° |
| 2026-04-23 18:09 | -25.22463 | -49.44601 | 34224 ft | 421 kts | 315° |
| 2026-04-23 18:10 | -25.17928 | -49.48689 | 34202 ft | 420 kts | 315° |
| 2026-04-23 18:10 | -25.13395 | -49.52772 | 34215 ft | 421 kts | 315° |
| 2026-04-23 18:11 | -25.08884 | -49.56835 | 34203 ft | 421 kts | 315° |
| 2026-04-23 18:11 | -25.04339 | -49.60925 | 34198 ft | 422 kts | 315° |
| 2026-04-23 18:12 | -24.99783 | -49.65031 | 34200 ft | 423 kts | 315° |
| 2026-04-23 18:12 | -24.95209 | -49.69128 | 34199 ft | 424 kts | 315° |
| 2026-04-23 18:13 | -24.90644 | -49.73244 | 34189 ft | 424 kts | 315° |
| 2026-04-23 18:13 | -24.86069 | -49.77373 | 34191 ft | 425 kts | 315° |
| 2026-04-23 18:14 | -24.81489 | -49.81500 | 34190 ft | 425 kts | 315° |
| 2026-04-23 18:14 | -24.76922 | -49.85593 | 34181 ft | 426 kts | 316° |
| 2026-04-23 18:15 | -24.72305 | -49.89697 | 34177 ft | 426 kts | 316° |
| 2026-04-23 18:15 | -24.67687 | -49.93800 | 34174 ft | 426 kts | 316° |
| 2026-04-23 18:16 | -24.63068 | -49.97905 | 34164 ft | 426 kts | 316° |
| 2026-04-23 18:16 | -24.58480 | -50.01980 | 34159 ft | 427 kts | 316° |
| 2026-04-23 18:17 | -24.51568 | -50.08137 | 34147 ft | 426 kts | 315° |
| 2026-04-23 18:17 | -24.47007 | -50.12290 | 34153 ft | 426 kts | 316° |
| 2026-04-23 18:18 | -24.42385 | -50.16361 | 34147 ft | 425 kts | 316° |
| 2026-04-23 18:18 | -24.37760 | -50.20414 | 34138 ft | 425 kts | 316° |
| 2026-04-23 18:19 | -24.33167 | -50.24455 | 34133 ft | 425 kts | 316° |
| 2026-04-23 18:19 | -24.28551 | -50.28518 | 34126 ft | 425 kts | 316° |
| 2026-04-23 18:20 | -24.23938 | -50.32562 | 34128 ft | 424 kts | 316° |
| 2026-04-23 18:20 | -24.19308 | -50.36589 | 34119 ft | 424 kts | 317° |
| 2026-04-23 18:21 | -24.14708 | -50.40622 | 34115 ft | 423 kts | 316° |
| 2026-04-23 18:21 | -24.10183 | -50.44680 | 34107 ft | 423 kts | 316° |
| 2026-04-23 18:22 | -24.05613 | -50.48743 | 34110 ft | 423 kts | 316° |
| 2026-04-23 18:22 | -24.01008 | -50.52769 | 34101 ft | 423 kts | 316° |
| 2026-04-23 18:23 | -23.94119 | -50.58793 | 34099 ft | 422 kts | 317° |
| 2026-04-23 18:24 | -23.87233 | -50.64824 | 34090 ft | 423 kts | 317° |
| 2026-04-23 18:25 | -23.80349 | -50.70860 | 34103 ft | 423 kts | 317° |
| 2026-04-23 18:25 | -23.75783 | -50.74858 | 34088 ft | 424 kts | 317° |
| 2026-04-23 18:26 | -23.71182 | -50.78882 | 34094 ft | 424 kts | 317° |
| 2026-04-23 18:26 | -23.66565 | -50.82917 | 34076 ft | 425 kts | 317° |
| 2026-04-23 18:27 | -23.61936 | -50.86959 | 34083 ft | 426 kts | 317° |
| 2026-04-23 18:27 | -23.57338 | -50.90971 | 34084 ft | 426 kts | 317° |
| 2026-04-23 18:28 | -23.52700 | -50.95013 | 34081 ft | 426 kts | 317° |
| 2026-04-23 18:28 | -23.48069 | -50.99049 | 34073 ft | 426 kts | 317° |
| 2026-04-23 18:29 | -23.43437 | -51.03085 | 34075 ft | 426 kts | 317° |
| 2026-04-23 18:29 | -23.38812 | -51.07113 | 34080 ft | 426 kts | 317° |
| 2026-04-23 18:30 | -23.34210 | -51.11114 | 34069 ft | 425 kts | 317° |
| 2026-04-23 18:30 | -23.29545 | -51.15077 | 34076 ft | 425 kts | 319° |
| 2026-04-23 18:31 | -23.24841 | -51.19001 | 34069 ft | 425 kts | 319° |
| 2026-04-23 18:31 | -23.20147 | -51.22916 | 34077 ft | 425 kts | 319° |
| 2026-04-23 18:32 | -23.15492 | -51.26806 | 34074 ft | 425 kts | 319° |
| 2026-04-23 18:32 | -23.10811 | -51.30719 | 34074 ft | 424 kts | 319° |
| 2026-04-23 18:33 | -23.06120 | -51.34640 | 34073 ft | 425 kts | 319° |
| 2026-04-23 18:33 | -23.01435 | -51.38551 | 34064 ft | 425 kts | 319° |
| 2026-04-23 18:34 | -22.96743 | -51.42464 | 34063 ft | 425 kts | 319° |
| 2026-04-23 18:34 | -22.92044 | -51.46379 | 34065 ft | 426 kts | 319° |
| 2026-04-23 18:35 | -22.87363 | -51.50277 | 34065 ft | 426 kts | 319° |
| 2026-04-23 18:35 | -22.82655 | -51.54194 | 34063 ft | 427 kts | 319° |
| 2026-04-23 18:36 | -22.77964 | -51.58091 | 34053 ft | 427 kts | 319° |
| 2026-04-23 18:36 | -22.73249 | -51.62005 | 34054 ft | 427 kts | 319° |
| 2026-04-23 18:37 | -22.68532 | -51.65920 | 34061 ft | 427 kts | 319° |
| 2026-04-23 18:37 | -22.63806 | -51.69840 | 34052 ft | 427 kts | 319° |
| 2026-04-23 18:38 | -22.59081 | -51.73752 | 34058 ft | 428 kts | 319° |
| 2026-04-23 18:38 | -22.54350 | -51.77665 | 34052 ft | 428 kts | 319° |
| 2026-04-23 18:39 | -22.49649 | -51.81552 | 34056 ft | 428 kts | 319° |
| 2026-04-23 18:39 | -22.44882 | -51.85489 | 34052 ft | 428 kts | 320° |
| 2026-04-23 18:40 | -22.40173 | -51.89376 | 34059 ft | 428 kts | 320° |
| 2026-04-23 18:40 | -22.35426 | -51.93290 | 34056 ft | 429 kts | 320° |
| 2026-04-23 18:41 | -22.30679 | -51.97200 | 34055 ft | 429 kts | 320° |
| 2026-04-23 18:41 | -22.25930 | -52.01108 | 34054 ft | 429 kts | 320° |
| 2026-04-23 18:42 | -22.21196 | -52.05001 | 34060 ft | 430 kts | 320° |
| 2026-04-23 18:42 | -22.16434 | -52.08914 | 34056 ft | 430 kts | 320° |
| 2026-04-23 18:43 | -22.11678 | -52.12819 | 34055 ft | 429 kts | 320° |
| 2026-04-23 18:43 | -22.06921 | -52.16719 | 34052 ft | 429 kts | 320° |
| 2026-04-23 18:44 | -22.02189 | -52.20596 | 34050 ft | 429 kts | 320° |
| 2026-04-23 18:44 | -21.97432 | -52.24491 | 34046 ft | 429 kts | 320° |
| 2026-04-23 18:45 | -21.93477 | -52.27727 | 34044 ft | 429 kts | 320° |
| 2026-04-23 18:45 | -21.88726 | -52.31610 | 34038 ft | 428 kts | 320° |
| 2026-04-23 18:46 | -21.83968 | -52.35496 | 34046 ft | 428 kts | 320° |
| 2026-04-23 18:46 | -21.79224 | -52.39368 | 34047 ft | 428 kts | 320° |
| 2026-04-23 18:47 | -21.74475 | -52.43242 | 34048 ft | 428 kts | 320° |
| 2026-04-23 18:47 | -21.69748 | -52.47093 | 34041 ft | 429 kts | 320° |
| 2026-04-23 18:48 | -21.64992 | -52.50962 | 34050 ft | 428 kts | 320° |
| 2026-04-23 18:48 | -21.60236 | -52.54830 | 34046 ft | 429 kts | 320° |
| 2026-04-23 18:49 | -21.55475 | -52.58698 | 34048 ft | 429 kts | 320° |
| 2026-04-23 18:49 | -21.50716 | -52.62563 | 34047 ft | 429 kts | 320° |
| 2026-04-23 18:50 | -21.46755 | -52.65777 | 34046 ft | 429 kts | 320° |
| 2026-04-23 18:50 | -21.41178 | -52.70298 | 34046 ft | 430 kts | 320° |
| 2026-04-23 18:51 | -21.36436 | -52.74139 | 34048 ft | 430 kts | 321° |
| 2026-04-23 18:51 | -21.31656 | -52.78006 | 34047 ft | 430 kts | 321° |
| 2026-04-23 18:52 | -21.26872 | -52.81873 | 34047 ft | 430 kts | 321° |
| 2026-04-23 18:52 | -21.22087 | -52.85741 | 34051 ft | 431 kts | 321° |
| 2026-04-23 18:53 | -21.17301 | -52.89606 | 34046 ft | 431 kts | 321° |
| 2026-04-23 18:53 | -21.12507 | -52.93469 | 34048 ft | 431 kts | 321° |
| 2026-04-23 18:54 | -21.07753 | -52.97300 | 34049 ft | 431 kts | 321° |
| 2026-04-23 18:54 | -21.02955 | -53.01165 | 34049 ft | 431 kts | 321° |
| 2026-04-23 18:55 | -20.98154 | -53.05027 | 34047 ft | 431 kts | 321° |
| 2026-04-23 18:55 | -20.93351 | -53.08889 | 34050 ft | 431 kts | 321° |
| 2026-04-23 18:56 | -20.89357 | -53.12096 | 34042 ft | 431 kts | 321° |
| 2026-04-23 18:56 | -20.83743 | -53.16601 | 34048 ft | 431 kts | 321° |
| 2026-04-23 18:57 | -20.78967 | -53.20432 | 34045 ft | 431 kts | 321° |
| 2026-04-23 18:57 | -20.74167 | -53.24279 | 34047 ft | 431 kts | 321° |
| 2026-04-23 18:58 | -20.69366 | -53.28122 | 34041 ft | 431 kts | 321° |
| 2026-04-23 18:58 | -20.64568 | -53.31958 | 34048 ft | 430 kts | 321° |
| 2026-04-23 18:59 | -20.59779 | -53.35786 | 34046 ft | 429 kts | 321° |
| 2026-04-23 18:59 | -20.54996 | -53.39606 | 34045 ft | 429 kts | 322° |
| 2026-04-23 19:00 | -20.50250 | -53.43393 | 34046 ft | 429 kts | 322° |
| 2026-04-23 19:00 | -20.45469 | -53.47205 | 34047 ft | 428 kts | 322° |
| 2026-04-23 19:01 | -20.40695 | -53.51010 | 34039 ft | 428 kts | 322° |
| 2026-04-23 19:01 | -20.35912 | -53.54817 | 34037 ft | 428 kts | 322° |
| 2026-04-23 19:02 | -20.31941 | -53.57975 | 34037 ft | 428 kts | 322° |
| 2026-04-23 19:02 | -20.26396 | -53.62384 | 34028 ft | 427 kts | 322° |
| 2026-04-23 19:03 | -20.21629 | -53.66171 | 34032 ft | 427 kts | 322° |
| 2026-04-23 19:03 | -20.16868 | -53.69949 | 34039 ft | 426 kts | 322° |
| 2026-04-23 19:04 | -20.12099 | -53.73730 | 34038 ft | 426 kts | 322° |
| 2026-04-23 19:04 | -20.07366 | -53.77480 | 34041 ft | 426 kts | 322° |
| 2026-04-23 19:05 | -20.02604 | -53.81251 | 34036 ft | 426 kts | 322° |
| 2026-04-23 19:05 | -19.97844 | -53.85017 | 34035 ft | 426 kts | 322° |
| 2026-04-23 19:06 | -19.93090 | -53.88775 | 34037 ft | 425 kts | 322° |
| 2026-04-23 19:06 | -19.88372 | -53.92501 | 34035 ft | 425 kts | 322° |
| 2026-04-23 19:07 | -19.83623 | -53.96250 | 34038 ft | 425 kts | 322° |
| 2026-04-23 19:07 | -19.78872 | -53.99997 | 34034 ft | 425 kts | 322° |
| 2026-04-23 19:08 | -19.74123 | -54.03740 | 34038 ft | 425 kts | 322° |
| 2026-04-23 19:08 | -19.69368 | -54.07485 | 34038 ft | 425 kts | 322° |
| 2026-04-23 19:09 | -19.64607 | -54.11232 | 34045 ft | 426 kts | 322° |
| 2026-04-23 19:09 | -19.59844 | -54.14978 | 34033 ft | 426 kts | 322° |
| 2026-04-23 19:10 | -19.55101 | -54.18706 | 34037 ft | 427 kts | 322° |
| 2026-04-23 19:10 | -19.50321 | -54.22461 | 34041 ft | 427 kts | 322° |
| 2026-04-23 19:11 | -19.45539 | -54.26210 | 34038 ft | 428 kts | 322° |
| 2026-04-23 19:11 | -19.40743 | -54.29969 | 34039 ft | 429 kts | 323° |
| 2026-04-23 19:12 | -19.36746 | -54.33099 | 34040 ft | 429 kts | 323° |
| 2026-04-23 19:12 | -19.31153 | -54.37479 | 34018 ft | 431 kts | 323° |
| 2026-04-23 19:13 | -19.26329 | -54.41254 | 34009 ft | 431 kts | 323° |
| 2026-04-23 19:13 | -19.21526 | -54.45006 | 34006 ft | 431 kts | 323° |
| 2026-04-23 19:14 | -19.16692 | -54.48783 | 34009 ft | 432 kts | 323° |
| 2026-04-23 19:14 | -19.11851 | -54.52559 | 34012 ft | 433 kts | 323° |
| 2026-04-23 19:15 | -19.07003 | -54.56342 | 34009 ft | 433 kts | 323° |
| 2026-04-23 19:15 | -19.02148 | -54.60126 | 34002 ft | 434 kts | 323° |
| 2026-04-23 19:16 | -18.97284 | -54.63914 | 33997 ft | 434 kts | 323° |
| 2026-04-23 19:16 | -18.92417 | -54.67702 | 34004 ft | 435 kts | 323° |
| 2026-04-23 19:17 | -18.85125 | -54.73368 | 33991 ft | 435 kts | 323° |
| 2026-04-23 19:17 | -18.80244 | -54.77161 | 33982 ft | 435 kts | 323° |
| 2026-04-23 19:18 | -18.75359 | -54.80953 | 33984 ft | 435 kts | 323° |
| 2026-04-23 19:18 | -18.70480 | -54.84738 | 33980 ft | 435 kts | 323° |
| 2026-04-23 19:19 | -18.63169 | -54.90402 | 33981 ft | 434 kts | 323° |
| 2026-04-23 19:20 | -18.55899 | -54.96030 | 33975 ft | 434 kts | 323° |
| 2026-04-23 19:20 | -18.51032 | -54.99793 | 33973 ft | 434 kts | 323° |
| 2026-04-23 19:21 | -18.43717 | -55.05446 | 33973 ft | 433 kts | 323° |
| 2026-04-23 19:22 | -18.38886 | -55.09175 | 33969 ft | 433 kts | 323° |
| 2026-04-23 19:22 | -18.31601 | -55.14792 | 33973 ft | 433 kts | 323° |
| 2026-04-23 19:23 | -18.26733 | -55.18544 | 33968 ft | 433 kts | 323° |
| 2026-04-23 19:24 | -18.19439 | -55.24161 | 33962 ft | 432 kts | 324° |
| 2026-04-23 19:24 | -18.12180 | -55.29743 | 33963 ft | 432 kts | 324° |
| 2026-04-23 19:25 | -18.02471 | -55.37200 | 33961 ft | 431 kts | 324° |
| 2026-04-23 19:26 | -17.95196 | -55.42785 | 33949 ft | 431 kts | 324° |
| 2026-04-23 19:27 | -17.83103 | -55.52049 | 33959 ft | 431 kts | 324° |
| 2026-04-23 19:28 | -17.73400 | -55.59472 | 33955 ft | 431 kts | 324° |
| 2026-04-23 19:29 | -17.66160 | -55.65032 | 33952 ft | 431 kts | 321° |
| 2026-04-23 19:30 | -17.59564 | -55.71463 | 33949 ft | 432 kts | 316° |
| 2026-04-23 19:31 | -17.53821 | -55.77306 | 33949 ft | 432 kts | 316° |
| 2026-04-23 19:31 | -17.49486 | -55.81655 | 33949 ft | 431 kts | 317° |
| 2026-04-23 19:32 | -17.45137 | -55.85990 | 33939 ft | 431 kts | 317° |
| 2026-04-23 19:32 | -17.40790 | -55.90313 | 33941 ft | 431 kts | 317° |
| 2026-04-23 19:33 | -17.36438 | -55.94638 | 33935 ft | 431 kts | 317° |
| 2026-04-23 19:33 | -17.29935 | -56.01097 | 33931 ft | 432 kts | 317° |
| 2026-04-23 19:34 | -17.25573 | -56.05425 | 33936 ft | 432 kts | 317° |
| 2026-04-23 19:35 | -17.19023 | -56.11919 | 33934 ft | 432 kts | 317° |
| 2026-04-23 19:35 | -17.14646 | -56.16255 | 33932 ft | 432 kts | 317° |
| 2026-04-23 19:36 | -17.10301 | -56.20559 | 33927 ft | 433 kts | 317° |
| 2026-04-23 19:36 | -17.05921 | -56.24891 | 33925 ft | 433 kts | 317° |
| 2026-04-23 19:37 | -17.01543 | -56.29219 | 33927 ft | 433 kts | 317° |
| 2026-04-23 19:37 | -16.97162 | -56.33547 | 33924 ft | 433 kts | 318° |
| 2026-04-23 19:38 | -16.92778 | -56.37875 | 33927 ft | 433 kts | 318° |
| 2026-04-23 19:38 | -16.88416 | -56.42178 | 33927 ft | 433 kts | 318° |
| 2026-04-23 19:39 | -16.84028 | -56.46505 | 33934 ft | 434 kts | 318° |
| 2026-04-23 19:39 | -16.79622 | -56.50846 | 33918 ft | 435 kts | 318° |
| 2026-04-23 19:40 | -16.75221 | -56.55178 | 33922 ft | 434 kts | 318° |
| 2026-04-23 19:40 | -16.70855 | -56.59476 | 33926 ft | 434 kts | 318° |
| 2026-04-23 19:41 | -16.66459 | -56.63800 | 33925 ft | 434 kts | 318° |
| 2026-04-23 19:41 | -16.62053 | -56.68130 | 33925 ft | 434 kts | 318° |
| 2026-04-23 19:42 | -16.57648 | -56.72456 | 33927 ft | 434 kts | 318° |
| 2026-04-23 19:42 | -16.53244 | -56.76778 | 33923 ft | 435 kts | 318° |
| 2026-04-23 19:43 | -16.48841 | -56.81096 | 33919 ft | 435 kts | 318° |
| 2026-04-23 19:43 | -16.44455 | -56.85395 | 33919 ft | 435 kts | 318° |
| 2026-04-23 19:44 | -16.40045 | -56.89714 | 33923 ft | 434 kts | 318° |
| 2026-04-23 19:44 | -16.35641 | -56.94026 | 33929 ft | 434 kts | 318° |
| 2026-04-23 19:45 | -16.31233 | -56.98338 | 33928 ft | 434 kts | 319° |
| 2026-04-23 19:45 | -16.26826 | -57.02645 | 33921 ft | 435 kts | 319° |
| 2026-04-23 19:46 | -16.22414 | -57.06955 | 33926 ft | 434 kts | 319° |
| 2026-04-23 19:46 | -16.18009 | -57.11258 | 33923 ft | 434 kts | 319° |
| 2026-04-23 19:47 | -16.13605 | -57.15555 | 33925 ft | 433 kts | 319° |
| 2026-04-23 19:47 | -16.09233 | -57.19817 | 33928 ft | 433 kts | 319° |
| 2026-04-23 19:48 | -16.04833 | -57.24104 | 33924 ft | 433 kts | 319° |
| 2026-04-23 19:48 | -16.00436 | -57.28387 | 33926 ft | 433 kts | 319° |
| 2026-04-23 19:49 | -15.96028 | -57.32677 | 33920 ft | 433 kts | 319° |
| 2026-04-23 19:49 | -15.91634 | -57.36951 | 33925 ft | 433 kts | 319° |
| 2026-04-23 19:50 | -15.87261 | -57.41203 | 33928 ft | 433 kts | 319° |
| 2026-04-23 19:50 | -15.82849 | -57.45488 | 33920 ft | 433 kts | 319° |
| 2026-04-23 19:51 | -15.78445 | -57.49764 | 33915 ft | 433 kts | 319° |
| 2026-04-23 19:51 | -15.74040 | -57.54036 | 33915 ft | 433 kts | 319° |
| 2026-04-23 19:52 | -15.69669 | -57.58274 | 33919 ft | 433 kts | 319° |
| 2026-04-23 19:52 | -15.65261 | -57.62547 | 33911 ft | 433 kts | 319° |
| 2026-04-23 19:53 | -15.60853 | -57.66817 | 33918 ft | 434 kts | 319° |
| 2026-04-23 19:53 | -15.56440 | -57.71090 | 33917 ft | 434 kts | 319° |
| 2026-04-23 19:54 | -15.52018 | -57.75367 | 33922 ft | 434 kts | 319° |
| 2026-04-23 19:54 | -15.47630 | -57.79606 | 33918 ft | 434 kts | 319° |
| 2026-04-23 19:55 | -15.43210 | -57.83877 | 33921 ft | 434 kts | 319° |
| 2026-04-23 19:55 | -15.38786 | -57.88150 | 33913 ft | 434 kts | 319° |
| 2026-04-23 19:56 | -15.34362 | -57.92420 | 33913 ft | 434 kts | 319° |
| 2026-04-23 19:56 | -15.29946 | -57.96680 | 33924 ft | 433 kts | 319° |
| 2026-04-23 19:57 | -15.25527 | -58.00941 | 33925 ft | 433 kts | 319° |
| 2026-04-23 19:57 | -15.21138 | -58.05173 | 33931 ft | 433 kts | 320° |
| 2026-04-23 19:58 | -15.16717 | -58.09427 | 33922 ft | 434 kts | 319° |
| 2026-04-23 19:58 | -15.12290 | -58.13687 | 33932 ft | 433 kts | 320° |
| 2026-04-23 19:59 | -15.07873 | -58.17935 | 33978 ft | 440 kts | 320° |
| 2026-04-23 19:59 | -15.03325 | -58.22305 | 34257 ft | 448 kts | 320° |
| 2026-04-23 19:59 | -15.01039 | -58.24502 | 34566 ft | 448 kts | 320° |
| 2026-04-23 20:00 | -14.98761 | -58.26691 | 34914 ft | 446 kts | 320° |
| 2026-04-23 20:00 | -14.96490 | -58.28874 | 35231 ft | 445 kts | 320° |
| 2026-04-23 20:00 | -14.94222 | -58.31051 | 35515 ft | 444 kts | 320° |
| 2026-04-23 20:00 | -14.91957 | -58.33225 | 35738 ft | 445 kts | 320° |
| 2026-04-23 20:01 | -14.89711 | -58.35381 | 35932 ft | 445 kts | 320° |
| 2026-04-23 20:01 | -14.85140 | -58.39761 | 35925 ft | 447 kts | 320° |
| 2026-04-23 20:02 | -14.80599 | -58.44105 | 35924 ft | 443 kts | 320° |
| 2026-04-23 20:02 | -14.76088 | -58.48417 | 35924 ft | 441 kts | 320° |
| 2026-04-23 20:03 | -14.71599 | -58.52707 | 35929 ft | 439 kts | 320° |
| 2026-04-23 20:03 | -14.67111 | -58.56993 | 35942 ft | 438 kts | 320° |
| 2026-04-23 20:04 | -14.62663 | -58.61240 | 35935 ft | 438 kts | 320° |
| 2026-04-23 20:04 | -14.58175 | -58.65523 | 35937 ft | 440 kts | 320° |
| 2026-04-23 20:05 | -14.54428 | -58.69095 | 35939 ft | 442 kts | 320° |
| 2026-04-23 20:05 | -14.49134 | -58.74143 | 35943 ft | 444 kts | 320° |
| 2026-04-23 20:06 | -14.44586 | -58.78475 | 35940 ft | 446 kts | 320° |
| 2026-04-23 20:06 | -14.40017 | -58.82824 | 35938 ft | 448 kts | 320° |
| 2026-04-23 20:07 | -14.35450 | -58.87138 | 35934 ft | 448 kts | 320° |
| 2026-04-23 20:07 | -14.30817 | -58.91478 | 35934 ft | 449 kts | 320° |
| 2026-04-23 20:08 | -14.26200 | -58.95809 | 35938 ft | 448 kts | 320° |
| 2026-04-23 20:08 | -14.21612 | -59.00099 | 35942 ft | 447 kts | 321° |
| 2026-04-23 20:09 | -14.16991 | -59.04385 | 35940 ft | 446 kts | 321° |
| 2026-04-23 20:09 | -14.12371 | -59.08669 | 35948 ft | 446 kts | 321° |
| 2026-04-23 20:10 | -14.08539 | -59.12223 | 35940 ft | 446 kts | 321° |
| 2026-04-23 20:10 | -14.03152 | -59.17217 | 35951 ft | 445 kts | 321° |
| 2026-04-23 20:11 | -13.98544 | -59.21489 | 35941 ft | 445 kts | 321° |
| 2026-04-23 20:11 | -13.93940 | -59.25754 | 35940 ft | 445 kts | 321° |
| 2026-04-23 20:12 | -13.89361 | -59.29992 | 35946 ft | 444 kts | 321° |
| 2026-04-23 20:12 | -13.84766 | -59.34243 | 35953 ft | 444 kts | 321° |
| 2026-04-23 20:13 | -13.80173 | -59.38492 | 35956 ft | 445 kts | 321° |
| 2026-04-23 20:13 | -13.75566 | -59.42751 | 35951 ft | 445 kts | 321° |
| 2026-04-23 20:14 | -13.70954 | -59.47010 | 35958 ft | 445 kts | 321° |
| 2026-04-23 20:14 | -13.66370 | -59.51242 | 35952 ft | 446 kts | 321° |
| 2026-04-23 20:15 | -13.61755 | -59.55501 | 35956 ft | 446 kts | 321° |
| 2026-04-23 20:15 | -13.57137 | -59.59758 | 35954 ft | 446 kts | 321° |
| 2026-04-23 20:16 | -13.52512 | -59.64021 | 35954 ft | 447 kts | 321° |
| 2026-04-23 20:16 | -13.47885 | -59.68284 | 35965 ft | 447 kts | 321° |
| 2026-04-23 20:17 | -13.43251 | -59.72550 | 35964 ft | 446 kts | 321° |
| 2026-04-23 20:17 | -13.39406 | -59.76088 | 35962 ft | 447 kts | 321° |
| 2026-04-23 20:18 | -13.34011 | -59.81051 | 35966 ft | 447 kts | 321° |
| 2026-04-23 20:18 | -13.30160 | -59.84592 | 35964 ft | 447 kts | 321° |
| 2026-04-23 20:19 | -13.25511 | -59.88864 | 35966 ft | 447 kts | 321° |
| 2026-04-23 20:19 | -13.20866 | -59.93128 | 35963 ft | 447 kts | 321° |
| 2026-04-23 20:20 | -13.16232 | -59.97382 | 35960 ft | 447 kts | 321° |
| 2026-04-23 20:20 | -13.11626 | -60.01608 | 35964 ft | 447 kts | 321° |
| 2026-04-23 20:21 | -13.06989 | -60.05859 | 35964 ft | 447 kts | 321° |
| 2026-04-23 20:21 | -13.02350 | -60.10110 | 35961 ft | 447 kts | 321° |
| 2026-04-23 20:22 | -12.97706 | -60.14364 | 35963 ft | 447 kts | 321° |
| 2026-04-23 20:22 | -12.93065 | -60.18612 | 35967 ft | 447 kts | 321° |
| 2026-04-23 20:23 | -12.88454 | -60.22830 | 35968 ft | 447 kts | 321° |
| 2026-04-23 20:23 | -12.83810 | -60.27078 | 35961 ft | 448 kts | 321° |
| 2026-04-23 20:24 | -12.79160 | -60.31329 | 35964 ft | 448 kts | 321° |
| 2026-04-23 20:24 | -12.74500 | -60.35586 | 35967 ft | 448 kts | 321° |
| 2026-04-23 20:25 | -12.69833 | -60.39847 | 35958 ft | 448 kts | 321° |
| 2026-04-23 20:25 | -12.65206 | -60.44071 | 35966 ft | 448 kts | 321° |
| 2026-04-23 20:26 | -12.60546 | -60.48321 | 35963 ft | 448 kts | 321° |
| 2026-04-23 20:26 | -12.55885 | -60.52571 | 35963 ft | 448 kts | 321° |
| 2026-04-23 20:27 | -12.51221 | -60.56821 | 35960 ft | 448 kts | 321° |
| 2026-04-23 20:27 | -12.46567 | -60.61061 | 35967 ft | 448 kts | 321° |
| 2026-04-23 20:28 | -12.41927 | -60.65284 | 35960 ft | 448 kts | 321° |
| 2026-04-23 20:28 | -12.37262 | -60.69529 | 35963 ft | 448 kts | 321° |
| 2026-04-23 20:29 | -12.32606 | -60.73764 | 35966 ft | 448 kts | 321° |
| 2026-04-23 20:29 | -12.27978 | -60.77971 | 35961 ft | 448 kts | 321° |
| 2026-04-23 20:30 | -12.23316 | -60.82207 | 35961 ft | 448 kts | 321° |
| 2026-04-23 20:30 | -12.16323 | -60.88558 | 35955 ft | 447 kts | 321° |
| 2026-04-23 20:31 | -12.11660 | -60.92785 | 35952 ft | 448 kts | 321° |
| 2026-04-23 20:31 | -12.07026 | -60.96985 | 35953 ft | 447 kts | 321° |
| 2026-04-23 20:32 | -12.02366 | -61.01207 | 35956 ft | 448 kts | 321° |
| 2026-04-23 20:32 | -11.97702 | -61.05431 | 35951 ft | 448 kts | 321° |
| 2026-04-23 20:33 | -11.93039 | -61.09654 | 35952 ft | 448 kts | 321° |
| 2026-04-23 20:33 | -11.88376 | -61.13874 | 35943 ft | 448 kts | 321° |
| 2026-04-23 20:34 | -11.83706 | -61.18097 | 35948 ft | 448 kts | 321° |
| 2026-04-23 20:34 | -11.79065 | -61.22293 | 35944 ft | 448 kts | 321° |
| 2026-04-23 20:35 | -11.74398 | -61.26509 | 35943 ft | 448 kts | 321° |
| 2026-04-23 20:35 | -11.69726 | -61.30730 | 35946 ft | 448 kts | 321° |
| 2026-04-23 20:36 | -11.65051 | -61.34951 | 35939 ft | 449 kts | 321° |
| 2026-04-23 20:36 | -11.60375 | -61.39171 | 35939 ft | 449 kts | 321° |
| 2026-04-23 20:37 | -11.55695 | -61.43394 | 35934 ft | 449 kts | 321° |
| 2026-04-23 20:37 | -11.51048 | -61.47585 | 35932 ft | 449 kts | 321° |
| 2026-04-23 20:38 | -11.46366 | -61.51799 | 35934 ft | 449 kts | 321° |
| 2026-04-23 20:38 | -11.41675 | -61.56021 | 35923 ft | 449 kts | 321° |
| 2026-04-23 20:39 | -11.37002 | -61.60228 | 35928 ft | 448 kts | 321° |
| 2026-04-23 20:39 | -11.32360 | -61.64409 | 35921 ft | 447 kts | 321° |
| 2026-04-23 20:40 | -11.27691 | -61.68610 | 35927 ft | 447 kts | 321° |
| 2026-04-23 20:40 | -11.23016 | -61.72816 | 35921 ft | 447 kts | 320° |
| 2026-04-23 20:41 | -11.18351 | -61.77011 | 35913 ft | 447 kts | 321° |
| 2026-04-23 20:41 | -11.13686 | -61.81203 | 35917 ft | 447 kts | 320° |
| 2026-04-23 20:42 | -11.09024 | -61.85392 | 35916 ft | 447 kts | 320° |
| 2026-04-23 20:42 | -11.04363 | -61.89578 | 35914 ft | 447 kts | 320° |
| 2026-04-23 20:43 | -10.99728 | -61.93739 | 35908 ft | 447 kts | 320° |
| 2026-04-23 20:43 | -10.95053 | -61.97933 | 35908 ft | 447 kts | 320° |
| 2026-04-23 20:44 | -10.90382 | -62.02119 | 35908 ft | 447 kts | 320° |
| 2026-04-23 20:44 | -10.85693 | -62.06320 | 35908 ft | 448 kts | 320° |
| 2026-04-23 20:45 | -10.81017 | -62.10509 | 35903 ft | 448 kts | 320° |
| 2026-04-23 20:45 | -10.76353 | -62.14685 | 35896 ft | 449 kts | 320° |
| 2026-04-23 20:46 | -10.71651 | -62.18894 | 35886 ft | 450 kts | 320° |
| 2026-04-23 20:46 | -10.66950 | -62.23101 | 35882 ft | 450 kts | 320° |
| 2026-04-23 20:47 | -10.62239 | -62.27314 | 35865 ft | 451 kts | 320° |
| 2026-04-23 20:47 | -10.57532 | -62.31523 | 35884 ft | 450 kts | 320° |
| 2026-04-23 20:48 | -10.52825 | -62.35730 | 35880 ft | 451 kts | 320° |
| 2026-04-23 20:48 | -10.48141 | -62.39915 | 35865 ft | 451 kts | 320° |
| 2026-04-23 20:49 | -10.43425 | -62.44127 | 35875 ft | 451 kts | 320° |
| 2026-04-23 20:49 | -10.38708 | -62.48336 | 35869 ft | 451 kts | 320° |
| 2026-04-23 20:50 | -10.33987 | -62.52547 | 35875 ft | 451 kts | 320° |
| 2026-04-23 20:50 | -10.29266 | -62.56758 | 35862 ft | 451 kts | 320° |
| 2026-04-23 20:51 | -10.24576 | -62.60940 | 35855 ft | 451 kts | 320° |
| 2026-04-23 20:51 | -10.19855 | -62.65146 | 35863 ft | 451 kts | 320° |
| 2026-04-23 20:52 | -10.15118 | -62.69364 | 35863 ft | 452 kts | 320° |
| 2026-04-23 20:52 | -10.10386 | -62.73577 | 35863 ft | 452 kts | 320° |
| 2026-04-23 20:53 | -10.05689 | -62.77757 | 35867 ft | 451 kts | 320° |
| 2026-04-23 20:53 | -10.00969 | -62.81957 | 35850 ft | 451 kts | 320° |
| 2026-04-23 20:54 | -9.96246 | -62.86156 | 35845 ft | 451 kts | 320° |
| 2026-04-23 20:54 | -9.91532 | -62.90347 | 35852 ft | 451 kts | 320° |
| 2026-04-23 20:55 | -9.86815 | -62.94538 | 35855 ft | 450 kts | 320° |
| 2026-04-23 20:55 | -9.82099 | -62.98727 | 35852 ft | 451 kts | 320° |
| 2026-04-23 20:56 | -9.77409 | -63.02891 | 35844 ft | 450 kts | 320° |
| 2026-04-23 20:56 | -9.72695 | -63.07076 | 35852 ft | 451 kts | 320° |
| 2026-04-23 20:57 | -9.67973 | -63.11265 | 35840 ft | 452 kts | 320° |
| 2026-04-23 20:57 | -9.63235 | -63.15466 | 35838 ft | 452 kts | 320° |
| 2026-04-23 20:58 | -9.58493 | -63.19670 | 35846 ft | 453 kts | 320° |
| 2026-04-23 20:58 | -9.53778 | -63.23849 | 35838 ft | 453 kts | 320° |
| 2026-04-23 20:59 | -9.49021 | -63.28064 | 35844 ft | 453 kts | 320° |
| 2026-04-23 20:59 | -9.44269 | -63.32273 | 35844 ft | 454 kts | 320° |
| 2026-04-23 21:00 | -9.39536 | -63.36506 | 35844 ft | 454 kts | 318° |
| 2026-04-23 21:00 | -9.35029 | -63.41008 | 35836 ft | 455 kts | 315° |
| 2026-04-23 21:01 | -9.30600 | -63.45593 | 35830 ft | 455 kts | 315° |
| 2026-04-23 21:01 | -9.26144 | -63.50168 | 35835 ft | 456 kts | 316° |
| 2026-04-23 21:02 | -9.21667 | -63.54724 | 35835 ft | 456 kts | 316° |
| 2026-04-23 21:02 | -9.17216 | -63.59242 | 35833 ft | 456 kts | 316° |
| 2026-04-23 21:03 | -9.12729 | -63.63790 | 35835 ft | 456 kts | 316° |
| 2026-04-23 21:03 | -9.08251 | -63.68328 | 35831 ft | 455 kts | 316° |
| 2026-04-23 21:04 | -9.03778 | -63.72863 | 35836 ft | 455 kts | 316° |
| 2026-04-23 21:04 | -8.99306 | -63.77395 | 35830 ft | 454 kts | 316° |
| 2026-04-23 21:05 | -8.94840 | -63.81916 | 35837 ft | 454 kts | 316° |
| 2026-04-23 21:05 | -8.90404 | -63.86408 | 35822 ft | 453 kts | 316° |
| 2026-04-23 21:06 | -8.85947 | -63.90920 | 35839 ft | 453 kts | 316° |
| 2026-04-23 21:06 | -8.82240 | -63.94673 | 35832 ft | 453 kts | 316° |
| 2026-04-23 21:07 | -8.77787 | -63.99178 | 35830 ft | 453 kts | 316° |
| 2026-04-23 21:07 | -8.73335 | -64.03676 | 35832 ft | 452 kts | 316° |
| 2026-04-23 21:08 | -8.68875 | -64.08173 | 35833 ft | 452 kts | 316° |
| 2026-04-23 21:08 | -8.64418 | -64.12665 | 35834 ft | 452 kts | 316° |
| 2026-04-23 21:09 | -8.59960 | -64.17157 | 35832 ft | 452 kts | 316° |
| 2026-04-23 21:09 | -8.55507 | -64.21644 | 35835 ft | 452 kts | 316° |
| 2026-04-23 21:10 | -8.51042 | -64.26140 | 35831 ft | 453 kts | 316° |
| 2026-04-23 21:10 | -8.46607 | -64.30605 | 35832 ft | 453 kts | 316° |
| 2026-04-23 21:11 | -8.42145 | -64.35097 | 35833 ft | 453 kts | 316° |
| 2026-04-23 21:11 | -8.37677 | -64.39595 | 35834 ft | 452 kts | 316° |
| 2026-04-23 21:12 | -8.33209 | -64.44088 | 35831 ft | 452 kts | 316° |
| 2026-04-23 21:12 | -8.28779 | -64.48546 | 35827 ft | 453 kts | 316° |
| 2026-04-23 21:13 | -8.24316 | -64.53041 | 35836 ft | 453 kts | 316° |
| 2026-04-23 21:13 | -8.19847 | -64.57544 | 35838 ft | 453 kts | 316° |
| 2026-04-23 21:14 | -8.15378 | -64.62043 | 35835 ft | 454 kts | 316° |
| 2026-04-23 21:14 | -8.10895 | -64.66556 | 35834 ft | 455 kts | 316° |
| 2026-04-23 21:15 | -8.06437 | -64.71042 | 35834 ft | 456 kts | 316° |
| 2026-04-23 21:15 | -8.01940 | -64.75565 | 35835 ft | 456 kts | 316° |
| 2026-04-23 21:16 | -7.97435 | -64.80095 | 35832 ft | 457 kts | 316° |
| 2026-04-23 21:16 | -7.92927 | -64.84627 | 35835 ft | 458 kts | 316° |
| 2026-04-23 21:17 | -7.88416 | -64.89161 | 35835 ft | 458 kts | 316° |
| 2026-04-23 21:17 | -7.83894 | -64.93703 | 35834 ft | 458 kts | 316° |
| 2026-04-23 21:18 | -7.79397 | -64.98220 | 35830 ft | 459 kts | 316° |
| 2026-04-23 21:18 | -7.74873 | -65.02763 | 35839 ft | 458 kts | 316° |
| 2026-04-23 21:19 | -7.70354 | -65.07298 | 35833 ft | 458 kts | 316° |
| 2026-04-23 21:19 | -7.65834 | -65.11835 | 35831 ft | 458 kts | 316° |
| 2026-04-23 21:20 | -7.61321 | -65.16362 | 35835 ft | 457 kts | 316° |
| 2026-04-23 21:20 | -7.56813 | -65.20881 | 35826 ft | 457 kts | 316° |
| 2026-04-23 21:21 | -7.52304 | -65.25398 | 35821 ft | 456 kts | 316° |
| 2026-04-23 21:21 | -7.47797 | -65.29910 | 35826 ft | 456 kts | 316° |
| 2026-04-23 21:22 | -7.43293 | -65.34414 | 35823 ft | 456 kts | 316° |
| 2026-04-23 21:22 | -7.38827 | -65.38883 | 35823 ft | 455 kts | 316° |
| 2026-04-23 21:23 | -7.34306 | -65.43407 | 35823 ft | 455 kts | 316° |
| 2026-04-23 21:23 | -7.29846 | -65.47870 | 35822 ft | 455 kts | 316° |
| 2026-04-23 21:24 | -7.25351 | -65.52368 | 35826 ft | 455 kts | 316° |
| 2026-04-23 21:24 | -7.20859 | -65.56859 | 35822 ft | 455 kts | 316° |
| 2026-04-23 21:25 | -7.16361 | -65.61353 | 35826 ft | 455 kts | 316° |
| 2026-04-23 21:25 | -7.11863 | -65.65846 | 35825 ft | 455 kts | 316° |
| 2026-04-23 21:26 | -7.07359 | -65.70345 | 35824 ft | 456 kts | 316° |
| 2026-04-23 21:26 | -7.02851 | -65.74846 | 35824 ft | 457 kts | 316° |
| 2026-04-23 21:27 | -6.98331 | -65.79360 | 35827 ft | 457 kts | 316° |
| 2026-04-23 21:27 | -6.93810 | -65.83871 | 35823 ft | 458 kts | 316° |
| 2026-04-23 21:28 | -6.89305 | -65.88366 | 35820 ft | 459 kts | 316° |
| 2026-04-23 21:28 | -6.84764 | -65.92893 | 35814 ft | 459 kts | 316° |
| 2026-04-23 21:29 | -6.80224 | -65.97420 | 35816 ft | 460 kts | 316° |
| 2026-04-23 21:29 | -6.75669 | -66.01962 | 35816 ft | 461 kts | 316° |
| 2026-04-23 21:30 | -6.71145 | -66.06472 | 35814 ft | 460 kts | 316° |
| 2026-04-23 21:30 | -6.66587 | -66.11013 | 35813 ft | 461 kts | 316° |
| 2026-04-23 21:31 | -6.62019 | -66.15562 | 35818 ft | 462 kts | 316° |
| 2026-04-23 21:31 | -6.57438 | -66.20123 | 35816 ft | 463 kts | 317° |
| 2026-04-23 21:32 | -6.52852 | -66.24689 | 35816 ft | 464 kts | 316° |
| 2026-04-23 21:32 | -6.48257 | -66.29264 | 35815 ft | 465 kts | 316° |
| 2026-04-23 21:33 | -6.43686 | -66.33812 | 35814 ft | 465 kts | 316° |
| 2026-04-23 21:33 | -6.39081 | -66.38387 | 35814 ft | 465 kts | 317° |
| 2026-04-23 21:34 | -6.34471 | -66.42965 | 35816 ft | 466 kts | 317° |
| 2026-04-23 21:34 | -6.29863 | -66.47542 | 35816 ft | 466 kts | 317° |
| 2026-04-23 21:35 | -6.25247 | -66.52127 | 35814 ft | 466 kts | 317° |
| 2026-04-23 21:35 | -6.20635 | -66.56704 | 35814 ft | 466 kts | 317° |
| 2026-04-23 21:36 | -6.13712 | -66.63573 | 35812 ft | 466 kts | 317° |
| 2026-04-23 21:37 | -6.09134 | -66.68115 | 35816 ft | 464 kts | 317° |
| 2026-04-23 21:37 | -6.04533 | -66.72681 | 35812 ft | 464 kts | 317° |
| 2026-04-23 21:38 | -5.99936 | -66.77239 | 35814 ft | 463 kts | 317° |
| 2026-04-23 21:38 | -5.95342 | -66.81797 | 35810 ft | 463 kts | 317° |
| 2026-04-23 21:39 | -5.90787 | -66.86309 | 35815 ft | 462 kts | 317° |
| 2026-04-23 21:39 | -5.86211 | -66.90844 | 35814 ft | 462 kts | 317° |
| 2026-04-23 21:40 | -5.81625 | -66.95386 | 35817 ft | 462 kts | 317° |
| 2026-04-23 21:40 | -5.77045 | -66.99925 | 35813 ft | 462 kts | 317° |
| 2026-04-23 21:41 | -5.72490 | -67.04434 | 35815 ft | 462 kts | 317° |
| 2026-04-23 21:41 | -5.67898 | -67.08980 | 35813 ft | 462 kts | 317° |
| 2026-04-23 21:42 | -5.63311 | -67.13521 | 35817 ft | 463 kts | 317° |
| 2026-04-23 21:42 | -5.58752 | -67.18032 | 35818 ft | 463 kts | 317° |
| 2026-04-23 21:43 | -5.54164 | -67.22575 | 35814 ft | 463 kts | 317° |
| 2026-04-23 21:43 | -5.49571 | -67.27123 | 35815 ft | 463 kts | 317° |
| 2026-04-23 21:44 | -5.44986 | -67.31663 | 35814 ft | 463 kts | 317° |
| 2026-04-23 21:44 | -5.40394 | -67.36210 | 35815 ft | 464 kts | 317° |
| 2026-04-23 21:45 | -5.35824 | -67.40734 | 35817 ft | 464 kts | 317° |
| 2026-04-23 21:45 | -5.31223 | -67.45286 | 35815 ft | 464 kts | 317° |
| 2026-04-23 21:46 | -5.26618 | -67.49840 | 35814 ft | 464 kts | 317° |
| 2026-04-23 21:46 | -5.22010 | -67.54393 | 35817 ft | 464 kts | 317° |
| 2026-04-23 21:47 | -5.17439 | -67.58909 | 35815 ft | 464 kts | 317° |
| 2026-04-23 21:47 | -5.12845 | -67.63447 | 35815 ft | 463 kts | 317° |
| 2026-04-23 21:48 | -5.08251 | -67.67986 | 35826 ft | 463 kts | 317° |
| 2026-04-23 21:48 | -5.03661 | -67.72520 | 35823 ft | 463 kts | 317° |
| 2026-04-23 21:49 | -4.99074 | -67.77051 | 35826 ft | 462 kts | 317° |
| 2026-04-23 21:49 | -4.94520 | -67.81549 | 35822 ft | 462 kts | 317° |
| 2026-04-23 21:50 | -4.89934 | -67.86074 | 35820 ft | 462 kts | 317° |
| 2026-04-23 21:50 | -4.85342 | -67.90605 | 35826 ft | 462 kts | 317° |
| 2026-04-23 21:51 | -4.80762 | -67.95124 | 35825 ft | 462 kts | 317° |
| 2026-04-23 21:51 | -4.76181 | -67.99644 | 35823 ft | 461 kts | 317° |
| 2026-04-23 21:52 | -4.71632 | -68.04133 | 35826 ft | 461 kts | 317° |
| 2026-04-23 21:52 | -4.67054 | -68.08646 | 35823 ft | 461 kts | 317° |
| 2026-04-23 21:53 | -4.62471 | -68.13164 | 35825 ft | 461 kts | 317° |
| 2026-04-23 21:53 | -4.58665 | -68.16916 | 35826 ft | 461 kts | 317° |
| 2026-04-23 21:54 | -4.54077 | -68.21438 | 35825 ft | 461 kts | 317° |
| 2026-04-23 21:54 | -4.49525 | -68.25926 | 35826 ft | 461 kts | 317° |
| 2026-04-23 21:55 | -4.44171 | -68.31201 | 35822 ft | 461 kts | 317° |
| 2026-04-23 21:55 | -4.40365 | -68.34951 | 35819 ft | 461 kts | 317° |
| 2026-04-23 21:56 | -4.35789 | -68.39457 | 35823 ft | 461 kts | 317° |
| 2026-04-23 21:56 | -4.31240 | -68.43936 | 35825 ft | 461 kts | 317° |
| 2026-04-23 21:57 | -4.26659 | -68.48446 | 35824 ft | 461 kts | 317° |
| 2026-04-23 21:57 | -4.22084 | -68.52951 | 35822 ft | 461 kts | 317° |
| 2026-04-23 21:58 | -4.17506 | -68.57456 | 35825 ft | 461 kts | 317° |
| 2026-04-23 21:58 | -4.12929 | -68.61959 | 35822 ft | 461 kts | 317° |
| 2026-04-23 21:59 | -4.08346 | -68.66471 | 35813 ft | 462 kts | 317° |
| 2026-04-23 21:59 | -4.03765 | -68.70979 | 35817 ft | 462 kts | 317° |
| 2026-04-23 22:00 | -3.96893 | -68.77750 | 35816 ft | 462 kts | 317° |
| 2026-04-23 22:00 | -3.92351 | -68.82245 | 35818 ft | 462 kts | 317° |
| 2026-04-23 22:01 | -3.87778 | -68.86770 | 35825 ft | 462 kts | 317° |
| 2026-04-23 22:01 | -3.83209 | -68.91290 | 35823 ft | 461 kts | 317° |
| 2026-04-23 22:02 | -3.78638 | -68.95811 | 35823 ft | 462 kts | 317° |
| 2026-04-23 22:02 | -3.74065 | -69.00330 | 35825 ft | 462 kts | 317° |
| 2026-04-23 22:03 | -3.69519 | -69.04825 | 35823 ft | 462 kts | 317° |
| 2026-04-23 22:03 | -3.64947 | -69.09345 | 35824 ft | 462 kts | 317° |
| 2026-04-23 22:04 | -3.60371 | -69.13866 | 35831 ft | 461 kts | 317° |
| 2026-04-23 22:04 | -3.55795 | -69.18386 | 35832 ft | 461 kts | 317° |
| 2026-04-23 22:05 | -3.51253 | -69.22873 | 35834 ft | 461 kts | 317° |
| 2026-04-23 22:05 | -3.46677 | -69.27396 | 35834 ft | 461 kts | 317° |
| 2026-04-23 22:06 | -3.42102 | -69.31915 | 35831 ft | 460 kts | 317° |
| 2026-04-23 22:06 | -3.37562 | -69.36397 | 35833 ft | 460 kts | 317° |
| 2026-04-23 22:07 | -3.33005 | -69.40896 | 35834 ft | 460 kts | 317° |
| 2026-04-23 22:07 | -3.28446 | -69.45397 | 35833 ft | 460 kts | 317° |
| 2026-04-23 22:08 | -3.23881 | -69.49904 | 35834 ft | 460 kts | 317° |
| 2026-04-23 22:08 | -3.19318 | -69.54408 | 35835 ft | 461 kts | 317° |
| 2026-04-23 22:09 | -3.14779 | -69.58887 | 35833 ft | 461 kts | 317° |
| 2026-04-23 22:09 | -3.10214 | -69.63391 | 35833 ft | 461 kts | 317° |
| 2026-04-23 22:10 | -3.05647 | -69.67898 | 35832 ft | 461 kts | 317° |
| 2026-04-23 22:10 | -3.01024 | -69.72341 | 35819 ft | 460 kts | 322° |
| 2026-04-23 22:11 | -2.95994 | -69.76283 | 35823 ft | 459 kts | 326° |
| 2026-04-23 22:11 | -2.90878 | -69.80104 | 35827 ft | 459 kts | 326° |
| 2026-04-23 22:12 | -2.85778 | -69.83954 | 35823 ft | 459 kts | 325° |
| 2026-04-23 22:12 | -2.80696 | -69.87842 | 35822 ft | 459 kts | 325° |
| 2026-04-23 22:13 | -2.75655 | -69.91716 | 35825 ft | 459 kts | 325° |
| 2026-04-23 22:13 | -2.70585 | -69.95615 | 35824 ft | 459 kts | 325° |
| 2026-04-23 22:14 | -2.65509 | -69.99516 | 35827 ft | 459 kts | 325° |
| 2026-04-23 22:14 | -2.60474 | -70.03385 | 35835 ft | 459 kts | 325° |
| 2026-04-23 22:15 | -2.55406 | -70.07279 | 35833 ft | 459 kts | 325° |
| 2026-04-23 22:15 | -2.50343 | -70.11169 | 35838 ft | 459 kts | 325° |
| 2026-04-23 22:16 | -2.45224 | -70.15098 | 35929 ft | 468 kts | 325° |
| 2026-04-23 22:16 | -2.42623 | -70.17093 | 36059 ft | 472 kts | 325° |
| 2026-04-23 22:16 | -2.40016 | -70.19094 | 36276 ft | 473 kts | 325° |
| 2026-04-23 22:17 | -2.37403 | -70.21103 | 36529 ft | 473 kts | 325° |
| 2026-04-23 22:17 | -2.34792 | -70.23109 | 36804 ft | 473 kts | 325° |
| 2026-04-23 22:17 | -2.32192 | -70.25107 | 37107 ft | 471 kts | 325° |
| 2026-04-23 22:17 | -2.29623 | -70.27081 | 37398 ft | 470 kts | 325° |
| 2026-04-23 22:18 | -2.27028 | -70.29074 | 37662 ft | 469 kts | 325° |
| 2026-04-23 22:18 | -2.24440 | -70.31061 | 37849 ft | 470 kts | 325° |
| 2026-04-23 22:18 | -2.19222 | -70.35064 | 37844 ft | 472 kts | 325° |
| 2026-04-23 22:19 | -2.14042 | -70.39042 | 37824 ft | 464 kts | 326° |
| 2026-04-23 22:19 | -2.08929 | -70.42968 | 37842 ft | 462 kts | 326° |
| 2026-04-23 22:20 | -2.03829 | -70.46882 | 37843 ft | 462 kts | 326° |
| 2026-04-23 22:20 | -1.98725 | -70.50797 | 37848 ft | 462 kts | 326° |
| 2026-04-23 22:21 | -1.93646 | -70.54694 | 37844 ft | 463 kts | 325° |
| 2026-04-23 22:21 | -1.88532 | -70.58617 | 37846 ft | 464 kts | 325° |
| 2026-04-23 22:22 | -1.83407 | -70.62550 | 37843 ft | 465 kts | 325° |
| 2026-04-23 22:22 | -1.78264 | -70.66495 | 37845 ft | 465 kts | 325° |
| 2026-04-23 22:23 | -1.73157 | -70.70413 | 37844 ft | 465 kts | 325° |
| 2026-04-23 22:23 | -1.68013 | -70.74359 | 37845 ft | 466 kts | 325° |
| 2026-04-23 22:24 | -1.62868 | -70.78305 | 37841 ft | 465 kts | 325° |
| 2026-04-23 22:24 | -1.57729 | -70.82246 | 37841 ft | 465 kts | 325° |
| 2026-04-23 22:25 | -1.52587 | -70.86189 | 37844 ft | 465 kts | 325° |
| 2026-04-23 22:25 | -1.47489 | -70.90098 | 37837 ft | 464 kts | 325° |
| 2026-04-23 22:26 | -1.42372 | -70.94024 | 37841 ft | 463 kts | 325° |
| 2026-04-23 22:26 | -1.37258 | -70.97946 | 37843 ft | 462 kts | 325° |
| 2026-04-23 22:27 | -1.32156 | -71.01856 | 37843 ft | 462 kts | 325° |
| 2026-04-23 22:27 | -1.27058 | -71.05766 | 37848 ft | 461 kts | 325° |
| 2026-04-23 22:28 | -1.21968 | -71.09669 | 37840 ft | 461 kts | 325° |
| 2026-04-23 22:28 | -1.16913 | -71.13544 | 37842 ft | 461 kts | 325° |
| 2026-04-23 22:29 | -1.11825 | -71.17443 | 37846 ft | 460 kts | 325° |
| 2026-04-23 22:29 | -1.06743 | -71.21337 | 37840 ft | 460 kts | 325° |
| 2026-04-23 22:30 | -1.01663 | -71.25232 | 37845 ft | 459 kts | 325° |
| 2026-04-23 22:30 | -0.96587 | -71.29122 | 37842 ft | 459 kts | 325° |
| 2026-04-23 22:31 | -0.91519 | -71.33006 | 37844 ft | 458 kts | 325° |
| 2026-04-23 22:31 | -0.86481 | -71.36867 | 37842 ft | 459 kts | 324° |
| 2026-04-23 22:32 | -0.81414 | -71.40751 | 37844 ft | 458 kts | 324° |
| 2026-04-23 22:32 | -0.76351 | -71.44629 | 37841 ft | 458 kts | 324° |
| 2026-04-23 22:33 | -0.71287 | -71.48510 | 37843 ft | 458 kts | 324° |
| 2026-04-23 22:33 | -0.66230 | -71.52387 | 37842 ft | 458 kts | 324° |
| 2026-04-23 22:34 | -0.61217 | -71.56229 | 37844 ft | 457 kts | 324° |
| 2026-04-23 22:34 | -0.56162 | -71.60103 | 37843 ft | 457 kts | 324° |
| 2026-04-23 22:35 | -0.51123 | -71.63965 | 37844 ft | 456 kts | 324° |
| 2026-04-23 22:35 | -0.46079 | -71.67828 | 37841 ft | 456 kts | 324° |
| 2026-04-23 22:36 | -0.41052 | -71.71681 | 37842 ft | 454 kts | 324° |
| 2026-04-23 22:36 | -0.36074 | -71.75497 | 37843 ft | 454 kts | 324° |
| 2026-04-23 22:37 | -0.31058 | -71.79344 | 37845 ft | 453 kts | 324° |
| 2026-04-23 22:37 | -0.26057 | -71.83173 | 37839 ft | 453 kts | 324° |
| 2026-04-23 22:38 | -0.21060 | -71.86999 | 37841 ft | 452 kts | 324° |
| 2026-04-23 22:38 | -0.16074 | -71.90821 | 37846 ft | 451 kts | 324° |
| 2026-04-23 22:39 | -0.11121 | -71.94617 | 37839 ft | 451 kts | 324° |
| 2026-04-23 22:39 | -0.06142 | -71.98434 | 37845 ft | 450 kts | 324° |
| 2026-04-23 22:40 | -0.01163 | -72.02252 | 37844 ft | 451 kts | 324° |
| 2026-04-23 22:41 | 0.06264 | -72.07966 | 37842 ft | 451 kts | 324° |
| 2026-04-23 22:41 | 0.11236 | -72.11790 | 37845 ft | 451 kts | 324° |
| 2026-04-23 22:42 | 0.15372 | -72.14975 | 37841 ft | 452 kts | 324° |
| 2026-04-23 22:42 | 0.20353 | -72.18809 | 37851 ft | 452 kts | 324° |
| 2026-04-23 22:43 | 0.25344 | -72.22651 | 37852 ft | 452 kts | 324° |
| 2026-04-23 22:43 | 0.30336 | -72.26491 | 37855 ft | 452 kts | 324° |
| 2026-04-23 22:44 | 0.35324 | -72.30329 | 37853 ft | 452 kts | 324° |
| 2026-04-23 22:44 | 0.40311 | -72.34165 | 37848 ft | 452 kts | 324° |
| 2026-04-23 22:45 | 0.45262 | -72.37976 | 37848 ft | 451 kts | 324° |
| 2026-04-23 22:45 | 0.50242 | -72.41809 | 37855 ft | 451 kts | 324° |
| 2026-04-23 22:46 | 0.55215 | -72.45638 | 37849 ft | 452 kts | 324° |
| 2026-04-23 22:46 | 0.60196 | -72.49471 | 37844 ft | 452 kts | 324° |
| 2026-04-23 22:47 | 0.65177 | -72.53303 | 37840 ft | 452 kts | 324° |
| 2026-04-23 22:47 | 0.70157 | -72.57136 | 37845 ft | 451 kts | 324° |
| 2026-04-23 22:48 | 0.75099 | -72.60940 | 37839 ft | 451 kts | 324° |
| 2026-04-23 22:48 | 0.80071 | -72.64766 | 37844 ft | 451 kts | 324° |
| 2026-04-23 22:49 | 0.85044 | -72.68594 | 37842 ft | 451 kts | 324° |
| 2026-04-23 22:49 | 0.90006 | -72.72414 | 37847 ft | 450 kts | 324° |
| 2026-04-23 22:50 | 0.94972 | -72.76238 | 37839 ft | 450 kts | 324° |
| 2026-04-23 22:50 | 0.99932 | -72.80055 | 37852 ft | 449 kts | 324° |
| 2026-04-23 22:51 | 1.04893 | -72.83873 | 37853 ft | 449 kts | 324° |
| 2026-04-23 22:51 | 1.09847 | -72.87688 | 37852 ft | 449 kts | 324° |
| 2026-04-23 22:52 | 1.14763 | -72.91473 | 37850 ft | 449 kts | 324° |
| 2026-04-23 22:52 | 1.19712 | -72.95284 | 37842 ft | 449 kts | 324° |
| 2026-04-23 22:53 | 1.24660 | -72.99092 | 37844 ft | 449 kts | 324° |
| 2026-04-23 22:53 | 1.29610 | -73.02904 | 37841 ft | 449 kts | 324° |
| 2026-04-23 22:54 | 1.34554 | -73.06711 | 37843 ft | 448 kts | 324° |
| 2026-04-23 22:54 | 1.39499 | -73.10520 | 37851 ft | 448 kts | 324° |
| 2026-04-23 22:55 | 1.44412 | -73.14304 | 37851 ft | 449 kts | 324° |
| 2026-04-23 22:55 | 1.49361 | -73.18115 | 37851 ft | 449 kts | 324° |
| 2026-04-23 22:56 | 1.54312 | -73.21928 | 37853 ft | 449 kts | 324° |
| 2026-04-23 22:56 | 1.59257 | -73.25737 | 37853 ft | 448 kts | 324° |
| 2026-04-23 22:57 | 1.64203 | -73.29546 | 37849 ft | 448 kts | 324° |
| 2026-04-23 22:57 | 1.69143 | -73.33351 | 37853 ft | 448 kts | 324° |
| 2026-04-23 22:58 | 1.74073 | -73.37149 | 37849 ft | 447 kts | 324° |
| 2026-04-23 22:58 | 1.78970 | -73.40922 | 37852 ft | 447 kts | 324° |
| 2026-04-23 22:59 | 1.83892 | -73.44715 | 37849 ft | 446 kts | 324° |
| 2026-04-23 22:59 | 1.88802 | -73.48499 | 37850 ft | 445 kts | 324° |
| 2026-04-23 23:00 | 1.93708 | -73.52279 | 37854 ft | 445 kts | 324° |
| 2026-04-23 23:00 | 1.98610 | -73.56058 | 37848 ft | 444 kts | 324° |
| 2026-04-23 23:01 | 2.03508 | -73.59835 | 37855 ft | 444 kts | 324° |
| 2026-04-23 23:01 | 2.08408 | -73.63610 | 37853 ft | 444 kts | 324° |
| 2026-04-23 23:02 | 2.13303 | -73.67383 | 37861 ft | 444 kts | 324° |
| 2026-04-23 23:02 | 2.18195 | -73.71154 | 37862 ft | 444 kts | 324° |
| 2026-04-23 23:03 | 2.23049 | -73.74896 | 37865 ft | 443 kts | 324° |
| 2026-04-23 23:03 | 2.27933 | -73.78661 | 37865 ft | 443 kts | 324° |
| 2026-04-23 23:04 | 2.32822 | -73.82429 | 37864 ft | 444 kts | 324° |
| 2026-04-23 23:04 | 2.37715 | -73.86203 | 37862 ft | 444 kts | 324° |
| 2026-04-23 23:05 | 2.42621 | -73.89988 | 37857 ft | 445 kts | 323° |
| 2026-04-23 23:05 | 2.47502 | -73.93753 | 37859 ft | 445 kts | 323° |
| 2026-04-23 23:06 | 2.52403 | -73.97535 | 37857 ft | 446 kts | 323° |
| 2026-04-23 23:06 | 2.57319 | -74.01327 | 37858 ft | 446 kts | 323° |
| 2026-04-23 23:07 | 2.62243 | -74.05126 | 37865 ft | 446 kts | 324° |
| 2026-04-23 23:07 | 2.67158 | -74.08919 | 37876 ft | 446 kts | 323° |
| 2026-04-23 23:08 | 2.72049 | -74.12694 | 37863 ft | 447 kts | 323° |
| 2026-04-23 23:08 | 2.76977 | -74.16498 | 37879 ft | 447 kts | 323° |
| 2026-04-23 23:09 | 2.81907 | -74.20305 | 37869 ft | 448 kts | 323° |
| 2026-04-23 23:09 | 2.86850 | -74.24116 | 37869 ft | 449 kts | 323° |
| 2026-04-23 23:10 | 2.91807 | -74.27928 | 37877 ft | 449 kts | 323° |
| 2026-04-23 23:10 | 2.96756 | -74.31734 | 37866 ft | 449 kts | 323° |
| 2026-04-23 23:11 | 3.01718 | -74.35553 | 37867 ft | 449 kts | 323° |
| 2026-04-23 23:11 | 3.06648 | -74.39346 | 37859 ft | 450 kts | 323° |
| 2026-04-23 23:12 | 3.11613 | -74.43168 | 37864 ft | 450 kts | 323° |
| 2026-04-23 23:12 | 3.16580 | -74.46993 | 37861 ft | 451 kts | 323° |
| 2026-04-23 23:13 | 3.21549 | -74.50820 | 37864 ft | 451 kts | 323° |
| 2026-04-23 23:13 | 3.26529 | -74.54655 | 37857 ft | 451 kts | 323° |
| 2026-04-23 23:14 | 3.31502 | -74.58483 | 37859 ft | 451 kts | 323° |
| 2026-04-23 23:14 | 3.36478 | -74.62317 | 37863 ft | 451 kts | 323° |
| 2026-04-23 23:15 | 3.41428 | -74.66134 | 37851 ft | 452 kts | 323° |
| 2026-04-23 23:15 | 3.46404 | -74.69970 | 37849 ft | 451 kts | 323° |
| 2026-04-23 23:16 | 3.51387 | -74.73809 | 37850 ft | 451 kts | 323° |
| 2026-04-23 23:16 | 3.56358 | -74.77641 | 37856 ft | 451 kts | 323° |
| 2026-04-23 23:17 | 3.61335 | -74.81477 | 37853 ft | 451 kts | 323° |
| 2026-04-23 23:17 | 3.66311 | -74.85314 | 37881 ft | 452 kts | 323° |
| 2026-04-23 23:18 | 3.71261 | -74.89130 | 37870 ft | 452 kts | 323° |
| 2026-04-23 23:18 | 3.76247 | -74.92976 | 37861 ft | 453 kts | 323° |
| 2026-04-23 23:19 | 3.81243 | -74.96830 | 37879 ft | 453 kts | 323° |
| 2026-04-23 23:19 | 3.86235 | -75.00681 | 37866 ft | 453 kts | 323° |
| 2026-04-23 23:20 | 3.91240 | -75.04542 | 37869 ft | 454 kts | 323° |
| 2026-04-23 23:20 | 3.96251 | -75.08408 | 37874 ft | 454 kts | 323° |
| 2026-04-23 23:21 | 4.01258 | -75.12274 | 37879 ft | 454 kts | 323° |
| 2026-04-23 23:21 | 4.06267 | -75.16141 | 37886 ft | 455 kts | 323° |
| 2026-04-23 23:22 | 4.11276 | -75.20009 | 37943 ft | 453 kts | 323° |
| 2026-04-23 23:22 | 4.16249 | -75.23850 | 37966 ft | 455 kts | 323° |
| 2026-04-23 23:23 | 4.21264 | -75.27722 | 37979 ft | 456 kts | 323° |
| 2026-04-23 23:23 | 4.26297 | -75.31609 | 37978 ft | 457 kts | 323° |
| 2026-04-23 23:24 | 4.31343 | -75.35509 | 37956 ft | 459 kts | 323° |
| 2026-04-23 23:24 | 4.36396 | -75.39415 | 37959 ft | 459 kts | 323° |
| 2026-04-23 23:25 | 4.41423 | -75.43301 | 37958 ft | 459 kts | 323° |
| 2026-04-23 23:25 | 4.46426 | -75.47278 | 37989 ft | 459 kts | 318° |
| 2026-04-23 23:26 | 4.51084 | -75.51642 | 38035 ft | 457 kts | 316° |
| 2026-04-23 23:26 | 4.55671 | -75.56071 | 38043 ft | 457 kts | 316° |
| 2026-04-23 23:27 | 4.59492 | -75.59740 | 38042 ft | 457 kts | 316° |
| 2026-04-23 23:27 | 4.64108 | -75.64136 | 38053 ft | 457 kts | 316° |
| 2026-04-23 23:28 | 4.68724 | -75.68517 | 38065 ft | 457 kts | 316° |
| 2026-04-23 23:28 | 4.73338 | -75.72894 | 38075 ft | 456 kts | 316° |
| 2026-04-23 23:29 | 4.77952 | -75.77276 | 38077 ft | 457 kts | 316° |
| 2026-04-23 23:29 | 4.82538 | -75.81630 | 38063 ft | 457 kts | 316° |
| 2026-04-23 23:30 | 4.87155 | -75.86015 | 38066 ft | 457 kts | 316° |
| 2026-04-23 23:30 | 4.91780 | -75.90408 | 38053 ft | 458 kts | 316° |
| 2026-04-23 23:31 | 4.96411 | -75.94809 | 38046 ft | 458 kts | 316° |
| 2026-04-23 23:31 | 5.01044 | -75.99212 | 38042 ft | 459 kts | 316° |
| 2026-04-23 23:32 | 5.05678 | -76.03621 | 38042 ft | 460 kts | 316° |
| 2026-04-23 23:32 | 5.10295 | -76.08009 | 37958 ft | 462 kts | 316° |
| 2026-04-23 23:33 | 5.14966 | -76.12447 | 37960 ft | 462 kts | 316° |
| 2026-04-23 23:33 | 5.19637 | -76.16889 | 37971 ft | 462 kts | 316° |
| 2026-04-23 23:34 | 5.24303 | -76.21333 | 37953 ft | 462 kts | 316° |
| 2026-04-23 23:34 | 5.28963 | -76.25765 | 37937 ft | 461 kts | 316° |
| 2026-04-23 23:35 | 5.33622 | -76.30198 | 37920 ft | 461 kts | 316° |
| 2026-04-23 23:35 | 5.38268 | -76.34622 | 37911 ft | 460 kts | 316° |
| 2026-04-23 23:36 | 5.42890 | -76.39024 | 37896 ft | 460 kts | 316° |
| 2026-04-23 23:36 | 5.47530 | -76.43444 | 37883 ft | 460 kts | 316° |
| 2026-04-23 23:37 | 5.52166 | -76.47860 | 37863 ft | 459 kts | 316° |
| 2026-04-23 23:37 | 5.56805 | -76.52280 | 37851 ft | 459 kts | 316° |
| 2026-04-23 23:38 | 5.61433 | -76.56691 | 37843 ft | 459 kts | 316° |
| 2026-04-23 23:38 | 5.66060 | -76.61104 | 37836 ft | 458 kts | 316° |
| 2026-04-23 23:39 | 5.70655 | -76.65482 | 37832 ft | 458 kts | 316° |
| 2026-04-23 23:39 | 5.75291 | -76.69881 | 37833 ft | 457 kts | 316° |
| 2026-04-23 23:40 | 5.79927 | -76.74278 | 37833 ft | 458 kts | 316° |
| 2026-04-23 23:40 | 5.84554 | -76.78669 | 37834 ft | 458 kts | 316° |
| 2026-04-23 23:41 | 5.89182 | -76.83065 | 37842 ft | 458 kts | 316° |
| 2026-04-23 23:41 | 5.93791 | -76.87443 | 37847 ft | 458 kts | 316° |
| 2026-04-23 23:42 | 5.98423 | -76.91845 | 37848 ft | 458 kts | 316° |
| 2026-04-23 23:42 | 6.03060 | -76.96251 | 37856 ft | 459 kts | 315° |
| 2026-04-23 23:43 | 6.07707 | -77.00670 | 37859 ft | 460 kts | 315° |
| 2026-04-23 23:43 | 6.12326 | -77.05063 | 37854 ft | 460 kts | 315° |
| 2026-04-23 23:44 | 6.16977 | -77.09487 | 37865 ft | 461 kts | 315° |
| 2026-04-23 23:44 | 6.21638 | -77.13922 | 37862 ft | 461 kts | 315° |
| 2026-04-23 23:45 | 6.26310 | -77.18367 | 37861 ft | 462 kts | 315° |
| 2026-04-23 23:45 | 6.30988 | -77.22821 | 37851 ft | 462 kts | 315° |
| 2026-04-23 23:46 | 6.35637 | -77.27248 | 37851 ft | 463 kts | 315° |
| 2026-04-23 23:46 | 6.40322 | -77.31712 | 37847 ft | 463 kts | 315° |
| 2026-04-23 23:47 | 6.44992 | -77.36161 | 37848 ft | 463 kts | 315° |
| 2026-04-23 23:47 | 6.49636 | -77.40586 | 37852 ft | 462 kts | 315° |
| 2026-04-23 23:48 | 6.54308 | -77.45041 | 37855 ft | 462 kts | 315° |
| 2026-04-23 23:48 | 6.58972 | -77.49488 | 37863 ft | 462 kts | 315° |
| 2026-04-23 23:49 | 6.65963 | -77.56156 | 37861 ft | 461 kts | 315° |
| 2026-04-23 23:49 | 6.70623 | -77.60602 | 37862 ft | 461 kts | 315° |
| 2026-04-23 23:50 | 6.75281 | -77.65048 | 37863 ft | 461 kts | 315° |
| 2026-04-23 23:50 | 6.79937 | -77.69493 | 37863 ft | 461 kts | 315° |
| 2026-04-23 23:51 | 6.84589 | -77.73938 | 37859 ft | 461 kts | 315° |
| 2026-04-23 23:51 | 6.89209 | -77.78351 | 37863 ft | 460 kts | 315° |
| 2026-04-23 23:52 | 6.93852 | -77.82786 | 37856 ft | 460 kts | 315° |
| 2026-04-23 23:52 | 6.98494 | -77.87224 | 37860 ft | 460 kts | 315° |
| 2026-04-23 23:53 | 7.03145 | -77.91671 | 37861 ft | 460 kts | 315° |
| 2026-04-23 23:53 | 7.07778 | -77.96103 | 37865 ft | 460 kts | 315° |
| 2026-04-23 23:54 | 7.12516 | -78.00397 | 37860 ft | 460 kts | 321° |
| 2026-04-23 23:54 | 7.17685 | -78.04227 | 37855 ft | 462 kts | 323° |
| 2026-04-23 23:55 | 7.22909 | -78.07980 | 37863 ft | 461 kts | 323° |
| 2026-04-23 23:55 | 7.28118 | -78.11781 | 37673 ft | 465 kts | 322° |
| 2026-04-23 23:56 | 7.30707 | -78.13689 | 37141 ft | 467 kts | 322° |
| 2026-04-23 23:56 | 7.33322 | -78.15624 | 36593 ft | 465 kts | 322° |
| 2026-04-23 23:56 | 7.35925 | -78.17552 | 36080 ft | 462 kts | 322° |
| 2026-04-23 23:56 | 7.38508 | -78.19466 | 35651 ft | 457 kts | 322° |
| 2026-04-23 23:57 | 7.41067 | -78.21362 | 35185 ft | 454 kts | 323° |
| 2026-04-23 23:57 | 7.43598 | -78.23238 | 34741 ft | 450 kts | 323° |
| 2026-04-23 23:57 | 7.46111 | -78.25101 | 34282 ft | 446 kts | 323° |
| 2026-04-23 23:57 | 7.48571 | -78.26923 | 33842 ft | 443 kts | 323° |
| 2026-04-23 23:58 | 7.51047 | -78.28758 | 33398 ft | 440 kts | 323° |
| 2026-04-23 23:58 | 7.53505 | -78.30580 | 32956 ft | 437 kts | 323° |
| 2026-04-23 23:58 | 7.55944 | -78.32388 | 32521 ft | 433 kts | 323° |
| 2026-04-23 23:58 | 7.58366 | -78.34184 | 32086 ft | 430 kts | 323° |
| 2026-04-23 23:59 | 7.60765 | -78.35962 | 31650 ft | 427 kts | 323° |
| 2026-04-23 23:59 | 7.63154 | -78.37734 | 31222 ft | 424 kts | 323° |
| 2026-04-23 23:59 | 7.65516 | -78.39484 | 30792 ft | 419 kts | 323° |
| 2026-04-23 23:59 | 7.67854 | -78.41218 | 30372 ft | 416 kts | 323° |
| 2026-04-24 00:00 | 7.70177 | -78.42943 | 29954 ft | 412 kts | 323° |
| 2026-04-24 00:00 | 7.72477 | -78.44655 | 29524 ft | 409 kts | 323° |
| 2026-04-24 00:00 | 7.74738 | -78.46330 | 29084 ft | 406 kts | 323° |
| 2026-04-24 00:00 | 7.77010 | -78.48014 | 28627 ft | 403 kts | 323° |
| 2026-04-24 00:01 | 7.79260 | -78.49683 | 28179 ft | 400 kts | 323° |
| 2026-04-24 00:01 | 7.81502 | -78.51346 | 27723 ft | 397 kts | 323° |
| 2026-04-24 00:01 | 7.83716 | -78.52985 | 27274 ft | 392 kts | 322° |
| 2026-04-24 00:01 | 7.85904 | -78.54611 | 26825 ft | 388 kts | 322° |
| 2026-04-24 00:02 | 7.88078 | -78.56225 | 26381 ft | 387 kts | 322° |
| 2026-04-24 00:02 | 7.90231 | -78.57828 | 25925 ft | 383 kts | 322° |
| 2026-04-24 00:02 | 7.92345 | -78.59399 | 25495 ft | 380 kts | 322° |
| 2026-04-24 00:02 | 7.94465 | -78.60975 | 25058 ft | 377 kts | 322° |
| 2026-04-24 00:03 | 7.96571 | -78.62540 | 24616 ft | 374 kts | 322° |
| 2026-04-24 00:03 | 7.98659 | -78.64093 | 24178 ft | 371 kts | 322° |
| 2026-04-24 00:03 | 8.00730 | -78.65633 | 23741 ft | 368 kts | 322° |
| 2026-04-24 00:03 | 8.02780 | -78.67158 | 23302 ft | 365 kts | 322° |
| 2026-04-24 00:04 | 8.04823 | -78.68676 | 22866 ft | 362 kts | 322° |
| 2026-04-24 00:04 | 8.06840 | -78.70177 | 22443 ft | 357 kts | 322° |
| 2026-04-24 00:04 | 8.08829 | -78.71660 | 22003 ft | 354 kts | 322° |
| 2026-04-24 00:04 | 8.10809 | -78.73131 | 21580 ft | 352 kts | 322° |
| 2026-04-24 00:05 | 8.12773 | -78.74590 | 21155 ft | 349 kts | 322° |
| 2026-04-24 00:05 | 8.14696 | -78.76020 | 20739 ft | 347 kts | 323° |
| 2026-04-24 00:05 | 8.16631 | -78.77461 | 20317 ft | 344 kts | 323° |
| 2026-04-24 00:05 | 8.18551 | -78.78889 | 19897 ft | 342 kts | 323° |
| 2026-04-24 00:06 | 8.20461 | -78.80311 | 19479 ft | 339 kts | 323° |
| 2026-04-24 00:06 | 8.22357 | -78.81721 | 19052 ft | 337 kts | 323° |
| 2026-04-24 00:06 | 8.24214 | -78.83148 | 18644 ft | 334 kts | 319° |
| 2026-04-24 00:06 | 8.25944 | -78.84721 | 18265 ft | 333 kts | 316° |
| 2026-04-24 00:07 | 8.27607 | -78.86323 | 17916 ft | 329 kts | 315° |
| 2026-04-24 00:07 | 8.29249 | -78.87922 | 17520 ft | 327 kts | 315° |
| 2026-04-24 00:07 | 8.30885 | -78.89507 | 17121 ft | 324 kts | 315° |
| 2026-04-24 00:07 | 8.32513 | -78.91075 | 16717 ft | 322 kts | 315° |
| 2026-04-24 00:08 | 8.34135 | -78.92628 | 16320 ft | 320 kts | 316° |
| 2026-04-24 00:08 | 8.35751 | -78.94168 | 15916 ft | 318 kts | 316° |
| 2026-04-24 00:08 | 8.37357 | -78.95695 | 15519 ft | 316 kts | 316° |
| 2026-04-24 00:08 | 8.38943 | -78.97198 | 15123 ft | 315 kts | 316° |
| 2026-04-24 00:09 | 8.40533 | -78.98707 | 14726 ft | 314 kts | 316° |
| 2026-04-24 00:09 | 8.42119 | -79.00205 | 14327 ft | 311 kts | 316° |
| 2026-04-24 00:09 | 8.43693 | -79.01699 | 13930 ft | 309 kts | 315° |
| 2026-04-24 00:09 | 8.45257 | -79.03182 | 13537 ft | 308 kts | 315° |
| 2026-04-24 00:10 | 8.46812 | -79.04657 | 13139 ft | 306 kts | 315° |
| 2026-04-24 00:10 | 8.48354 | -79.06121 | 12742 ft | 303 kts | 316° |
| 2026-04-24 00:10 | 8.49885 | -79.07568 | 12357 ft | 300 kts | 315° |
| 2026-04-24 00:10 | 8.51404 | -79.09008 | 11959 ft | 299 kts | 315° |
| 2026-04-24 00:11 | 8.52919 | -79.10443 | 11580 ft | 296 kts | 315° |
| 2026-04-24 00:11 | 8.54415 | -79.11863 | 11183 ft | 294 kts | 315° |
| 2026-04-24 00:11 | 8.55906 | -79.13278 | 10800 ft | 293 kts | 315° |
| 2026-04-24 00:11 | 8.57369 | -79.14666 | 10419 ft | 291 kts | 316° |
| 2026-04-24 00:12 | 8.58840 | -79.16062 | 10081 ft | 288 kts | 316° |
| 2026-04-24 00:12 | 8.60275 | -79.17423 | 9842 ft | 281 kts | 316° |
| 2026-04-24 00:12 | 8.61701 | -79.18776 | 9479 ft | 280 kts | 316° |
| 2026-04-24 00:12 | 8.63119 | -79.20123 | 9126 ft | 279 kts | 316° |
| 2026-04-24 00:13 | 8.64530 | -79.21461 | 8772 ft | 278 kts | 316° |
| 2026-04-24 00:13 | 8.65937 | -79.22797 | 8417 ft | 276 kts | 316° |
| 2026-04-24 00:13 | 8.66863 | -79.23675 | 8182 ft | 275 kts | 316° |
| 2026-04-24 00:13 | 8.68255 | -79.24996 | 7859 ft | 274 kts | 316° |
| 2026-04-24 00:14 | 8.69645 | -79.26316 | 7566 ft | 274 kts | 316° |
| 2026-04-24 00:14 | 8.71493 | -79.28073 | 7177 ft | 276 kts | 316° |
| 2026-04-24 00:14 | 8.72889 | -79.29399 | 6874 ft | 275 kts | 316° |
| 2026-04-24 00:14 | 8.73827 | -79.30289 | 6668 ft | 273 kts | 316° |
| 2026-04-24 00:15 | 8.75206 | -79.31597 | 6370 ft | 271 kts | 316° |
| 2026-04-24 00:15 | 8.76575 | -79.32900 | 6084 ft | 269 kts | 317° |
| 2026-04-24 00:15 | 8.77919 | -79.34176 | 5797 ft | 267 kts | 316° |
| 2026-04-24 00:15 | 8.79272 | -79.35461 | 5508 ft | 265 kts | 316° |
| 2026-04-24 00:16 | 8.80614 | -79.36738 | 5223 ft | 263 kts | 317° |
| 2026-04-24 00:16 | 8.81949 | -79.38005 | 4939 ft | 262 kts | 316° |
| 2026-04-24 00:16 | 8.83265 | -79.39256 | 4633 ft | 255 kts | 316° |
| 2026-04-24 00:16 | 8.84381 | -79.40609 | 4352 ft | 249 kts | 301° |
| 2026-04-24 00:17 | 8.85255 | -79.42088 | 4128 ft | 247 kts | 301° |
| 2026-04-24 00:17 | 8.86127 | -79.43538 | 3881 ft | 234 kts | 301° |
| 2026-04-24 00:17 | 8.86956 | -79.44897 | 3620 ft | 220 kts | 302° |
| 2026-04-24 00:17 | 8.87745 | -79.46179 | 3399 ft | 209 kts | 303° |
| 2026-04-24 00:18 | 8.88775 | -79.47082 | 3354 ft | 187 kts | 345° |
| 2026-04-24 00:18 | 8.89998 | -79.47013 | 3257 ft | 174 kts | 16° |
| 2026-04-24 00:18 | 8.91150 | -79.46656 | 3015 ft | 171 kts | 21° |
| 2026-04-24 00:18 | 8.92241 | -79.46217 | 2813 ft | 167 kts | 23° |
| 2026-04-24 00:19 | 8.93273 | -79.45752 | 2585 ft | 158 kts | 27° |
| 2026-04-24 00:19 | 8.94212 | -79.45254 | 2385 ft | 148 kts | 30° |
| 2026-04-24 00:19 | 8.95113 | -79.44751 | 2203 ft | 148 kts | 31° |
| 2026-04-24 00:19 | 8.96016 | -79.44238 | 2016 ft | 150 kts | 30° |
| 2026-04-24 00:20 | 8.96918 | -79.43727 | 1807 ft | 150 kts | 30° |
| 2026-04-24 00:20 | 8.97829 | -79.43208 | 1610 ft | 147 kts | 28° |
| 2026-04-24 00:20 | 8.98708 | -79.42710 | 1406 ft | 142 kts | 27° |
| 2026-04-24 00:20 | 8.99569 | -79.42218 | 1223 ft | 144 kts | 31° |
| 2026-04-24 00:21 | 9.00439 | -79.41722 | 1033 ft | 142 kts | 29° |
| 2026-04-24 00:21 | 9.01291 | -79.41238 | 831 ft | 137 kts | 28° |
| 2026-04-24 00:21 | 9.02100 | -79.40777 | 657 ft | 131 kts | 29° |
| 2026-04-24 00:21 | 9.02903 | -79.40327 | 492 ft | 133 kts | 28° |
| 2026-04-24 00:22 | 9.03720 | -79.39873 | 305 ft | 136 kts | 29° |
| 2026-04-24 00:22 | 9.04548 | -79.39387 | 125 ft | 139 kts | 30° |
| 2026-04-24 00:22 | 9.05380 | -79.38912 | 31 ft | 129 kts | 29° |
| 2026-04-24 00:22 | 9.06042 | -79.38535 | 31 ft | 82 kts | 29° |
| 2026-04-24 00:23 | 9.06309 | -79.38388 | 28 ft | 28 kts | 16° |
| 2026-04-24 00:23 | 9.06499 | -79.38375 | 29 ft | 23 kts | 359° |
| 2026-04-24 00:23 | 9.06550 | -79.38378 | 29 ft | 5 kts | 357° |
| 2026-04-24 00:23 | 9.06562 | -79.38378 | 29 ft | 0 kts | 357° |
| 2026-04-24 00:24 | 9.06564 | -79.38378 | 29 ft | 1 kts | 357° |
| 2026-04-24 00:24 | 9.06585 | -79.38380 | 29 ft | 6 kts | 356° |
| 2026-04-24 00:25 | 9.06640 | -79.38398 | 29 ft | 11 kts | 316° |
| 2026-04-24 00:25 | 9.06698 | -79.38438 | 29 ft | 13 kts | 12° |
| 2026-04-24 00:25 | 9.06776 | -79.38399 | 29 ft | 14 kts | 24° |
| 2026-04-24 00:25 | 9.06832 | -79.38391 | 29 ft | 5 kts | 331° |
| 2026-04-24 00:26 | 9.06839 | -79.38416 | 29 ft | 5 kts | 258° |
| 2026-04-24 00:26 | 9.06831 | -79.38449 | 29 ft | 1 kts | 257° |
| 2026-04-24 00:26 | 9.06831 | -79.38450 | 29 ft | 0 kts | 257° |